Time;durP1;ratioP1;P1;durP2;ratioP2;P2;SDS_P1;SDS_P2;PMS_P1;PMS_P2;Temp;Humidity;BMP_temperature;BMP_pressure;BME280_temperature;BME280_humidity;BME280_pressure;Samples;Min_cycle;Max_cycle;Signal;HPM_P1;HPM_P2
2022/02/11 00:08:29;;;;;;;9.80;4.00;;;;;;;6.47;83.27;102101.63;4993687;28;20042;-47
2022/02/11 00:10:57;;;;;;;11.60;4.78;;;;;;;6.44;83.32;102102.88;4993700;28;20047;-47
2022/02/11 00:13:26;;;;;;;10.27;4.47;;;;;;;6.43;82.88;102112.06;4993912;28;20049;-45
2022/02/11 00:15:55;;;;;;;13.00;4.30;;;;;;;6.43;82.59;102116.66;4993875;28;20105;-46
2022/02/11 00:18:22;;;;;;;13.40;5.40;;;;;;;6.41;82.45;102111.44;4993756;28;20047;-47
2022/02/11 00:20:51;;;;;;;12.57;4.50;;;;;;;6.37;82.66;102119.16;4993806;28;20050;-44
2022/02/11 00:23:20;;;;;;;11.48;4.68;;;;;;;6.36;82.28;102114.75;4993544;28;20409;-47
2022/02/11 00:25:54;;;;;;;11.95;4.47;;;;;;;6.33;81.93;102107.06;4976534;28;20050;-46
2022/02/11 00:33:38;;;;;;;12.23;4.57;;;;;;;6.33;81.97;102112.47;4976550;28;20046;-45
2022/02/11 00:36:09;;;;;;;12.60;4.75;;;;;;;6.30;81.69;102107.50;4994131;28;20046;-46
2022/02/11 00:41:56;;;;;;;11.70;4.30;;;;;;;6.26;81.79;102106.22;4993301;28;20053;-47
2022/02/11 00:45:24;;;;;;;10.02;4.47;;;;;;;6.28;81.67;102108.75;4993237;28;20047;-48
2022/02/11 01:06:13;;;;;;;12.60;4.22;;;;;;;6.18;80.51;102101.00;4997190;28;20077;-45
2022/02/11 01:08:41;;;;;;;11.60;4.22;;;;;;;6.15;80.55;102096.00;4996594;28;20046;-45
2022/02/11 01:11:15;;;;;;;12.73;4.85;;;;;;;6.11;80.51;102101.03;4997143;28;20046;-45
2022/02/11 01:13:43;;;;;;;11.38;4.40;;;;;;;6.10;80.28;102106.63;4996989;28;20113;-45
2022/02/11 01:16:16;;;;;;;12.43;4.80;;;;;;;6.08;80.69;102106.00;4997013;28;20047;-47
2022/02/11 01:18:51;;;;;;;9.45;4.40;;;;;;;6.05;80.95;102103.72;4996516;28;20034;-44
2022/02/11 01:21:27;;;;;;;9.20;4.20;;;;;;;6.03;80.46;102105.78;4996810;28;20058;-48
2022/02/11 01:24:07;;;;;;;12.15;4.90;;;;;;;6.02;80.58;102101.44;4996764;28;20058;-47
2022/02/11 01:26:52;;;;;;;10.48;4.72;;;;;;;6.01;80.76;102097.88;4996621;28;20035;-44
2022/02/11 01:33:23;;;;;;;13.20;4.55;;;;;;;5.98;80.23;102092.88;4917651;29;20044;-44
2022/02/11 02:25:51;;;;;;;11.30;4.30;;;;;;;5.81;79.53;102086.16;4976339;28;20050;-48
2022/02/11 02:34:21;;;;;;;9.15;3.55;;;;;;;5.80;79.89;102084.47;4995803;28;19969;-45
2022/02/11 02:59:04;;;;;;;11.88;4.00;;;;;;;5.49;85.94;102121.03;4964697;28;20125;-46
2022/02/11 03:01:47;;;;;;;13.82;4.25;;;;;;;5.51;86.49;102125.19;4994748;28;20093;-44
2022/02/11 03:16:16;;;;;;;15.55;3.65;;;;;;;5.73;86.52;102108.81;4980567;28;20116;-46
2022/02/11 04:22:08;;;;;;;13.98;3.78;;;;;;;5.58;88.09;102178.44;4993476;28;20047;-47
2022/02/11 04:55:02;;;;;;;18.23;4.90;;;;;;;5.57;87.28;102223.56;4997209;28;20482;-43
2022/02/11 05:00:18;;;;;;;18.45;5.00;;;;;;;5.49;86.34;102240.78;4983143;28;20050;-45
2022/02/11 05:02:47;;;;;;;12.90;4.53;;;;;;;5.50;86.61;102238.91;4979993;28;20137;-47
2022/02/11 05:05:16;;;;;;;17.95;4.50;;;;;;;5.52;86.73;102248.50;4997571;28;20081;-42
2022/02/11 05:07:44;;;;;;;18.20;5.07;;;;;;;5.51;87.45;102254.94;4980260;28;20042;-45
2022/02/11 05:10:15;;;;;;;18.23;4.47;;;;;;;5.53;87.24;102252.88;4997399;28;20038;-46
2022/02/11 05:12:44;;;;;;;15.10;4.35;;;;;;;5.54;87.47;102268.06;4996930;28;20046;-45
2022/02/11 05:15:13;;;;;;;18.63;4.68;;;;;;;5.51;87.24;102267.63;4996969;28;20042;-47
2022/02/11 05:17:50;;;;;;;20.95;4.85;;;;;;;5.47;86.50;102283.41;4997316;28;20509;-42
2022/02/11 05:20:19;;;;;;;20.77;5.25;;;;;;;5.39;87.28;102288.97;4997581;28;20050;-46
2022/02/11 05:22:47;;;;;;;24.70;4.53;;;;;;;5.30;87.75;102282.88;4996387;28;20050;-47
2022/02/11 05:25:14;;;;;;;17.27;4.20;;;;;;;5.32;88.12;102301.59;4979715;28;20049;-45
2022/02/11 05:27:42;;;;;;;15.70;4.35;;;;;;;5.31;88.60;102291.81;4997136;28;20058;-46
2022/02/11 05:30:10;;;;;;;15.75;4.57;;;;;;;5.29;88.95;102304.69;4996783;28;20125;-47
2022/02/11 05:32:38;;;;;;;15.27;4.22;;;;;;;5.28;89.04;102311.13;4979206;28;20046;-44
2022/02/11 05:35:07;;;;;;;18.77;4.70;;;;;;;5.21;88.11;102316.47;4996701;28;20046;-45
2022/02/11 05:37:35;;;;;;;16.98;4.68;;;;;;;5.21;88.21;102323.75;4996747;28;20077;-45
2022/02/11 05:40:03;;;;;;;19.77;5.40;;;;;;;5.11;88.27;102335.72;4996232;28;20065;-47
2022/02/11 05:42:31;;;;;;;17.13;5.30;;;;;;;5.03;87.79;102348.53;4996180;28;20042;-44
2022/02/11 05:44:59;;;;;;;21.23;5.07;;;;;;;5.02;88.27;102338.75;4979469;28;20404;-45
2022/02/11 05:47:27;;;;;;;18.58;5.10;;;;;;;5.03;87.73;102348.53;4996703;28;20050;-44
2022/02/11 05:49:55;;;;;;;19.00;4.78;;;;;;;5.03;87.60;102338.56;4996407;28;20125;-44
2022/02/11 05:52:45;;;;;;;16.50;3.95;;;;;;;5.02;87.84;102358.47;4995719;28;20097;-43
2022/02/11 05:55:13;;;;;;;15.88;3.72;;;;;;;4.98;87.04;102345.56;4995743;28;20068;-43
2022/02/11 05:57:41;;;;;;;15.55;4.57;;;;;;;4.95;86.70;102371.09;4996414;28;20038;-45
2022/02/11 06:00:11;;;;;;;12.73;3.90;;;;;;;4.95;86.96;102362.16;4979056;28;20054;-47
2022/02/11 06:02:38;;;;;;;14.65;4.75;;;;;;;4.95;86.84;102373.78;4995211;28;20050;-46
2022/02/11 06:05:07;;;;;;;17.20;4.32;;;;;;;4.93;86.73;102375.00;4978861;28;20078;-46
2022/02/11 06:07:37;;;;;;;17.08;4.22;;;;;;;4.95;86.94;102394.56;4995991;28;20121;-45
2022/02/11 06:10:05;;;;;;;17.50;4.93;;;;;;;4.94;87.18;102377.53;4996193;28;20050;-47
2022/02/11 06:12:33;;;;;;;15.85;4.30;;;;;;;4.94;87.30;102396.44;4995733;28;20153;-47
2022/02/11 06:15:01;;;;;;;18.77;4.88;;;;;;;4.93;87.51;102396.63;4995764;28;20057;-46
2022/02/11 06:17:29;;;;;;;17.88;4.82;;;;;;;4.93;87.99;102408.28;4978904;28;20054;-44
2022/02/11 06:20:00;;;;;;;22.73;5.45;;;;;;;4.90;88.52;102406.78;4995600;28;20073;-44
2022/02/11 06:22:31;;;;;;;17.58;4.60;;;;;;;4.87;88.68;102414.44;4995059;28;20449;-42
2022/02/11 06:24:59;;;;;;;16.13;4.53;;;;;;;4.88;89.16;102416.97;4995342;28;20096;-46
2022/02/11 06:27:27;;;;;;;20.10;4.95;;;;;;;4.91;89.33;102413.03;4995571;28;20053;-46
2022/02/11 06:29:55;;;;;;;19.67;5.00;;;;;;;4.87;89.09;102430.63;4995422;28;20102;-44
2022/02/11 06:32:22;;;;;;;18.55;5.15;;;;;;;4.86;88.78;102432.50;4995104;28;20049;-46
2022/02/11 06:34:54;;;;;;;25.67;5.82;;;;;;;4.90;88.75;102443.75;4995625;28;20061;-43
2022/02/11 06:37:21;;;;;;;16.95;4.13;;;;;;;4.88;88.90;102452.06;4995348;28;20050;-45
2022/02/11 06:39:49;;;;;;;20.77;5.05;;;;;;;4.87;88.15;102457.66;4978148;28;20193;-46
2022/02/11 06:42:17;;;;;;;15.10;4.07;;;;;;;4.82;87.26;102462.78;4995044;28;20038;-43
2022/02/11 06:44:45;;;;;;;17.02;4.65;;;;;;;4.81;87.15;102466.50;4995223;28;20046;-44
2022/02/11 06:47:13;;;;;;;16.15;4.50;;;;;;;4.84;87.63;102466.13;4995008;28;20069;-46
2022/02/11 06:49:41;;;;;;;21.35;5.25;;;;;;;4.80;87.21;102472.94;4995009;28;20046;-45
2022/02/11 06:52:11;;;;;;;17.10;4.32;;;;;;;4.75;86.19;102484.28;4977149;28;20050;-46
2022/02/11 06:54:39;;;;;;;14.10;4.28;;;;;;;4.74;86.10;102492.56;4994757;28;20050;-45
2022/02/11 06:57:12;;;;;;;14.35;4.57;;;;;;;4.75;86.18;102502.38;4994892;28;20042;-45
2022/02/11 06:59:40;;;;;;;14.90;4.03;;;;;;;4.75;85.57;102510.47;4977129;28;20042;-47
2022/02/11 07:02:17;;;;;;;14.20;3.88;;;;;;;4.77;85.18;102516.53;4977905;28;20050;-45
2022/02/11 07:04:45;;;;;;;15.35;4.00;;;;;;;4.72;84.10;102538.69;4994810;28;20104;-46
2022/02/11 07:07:13;;;;;;;15.68;4.25;;;;;;;4.72;84.02;102535.16;4977619;28;20093;-47
2022/02/11 07:09:41;;;;;;;15.52;3.80;;;;;;;4.74;84.70;102538.47;4994367;28;20090;-45
2022/02/11 07:12:10;;;;;;;12.18;3.45;;;;;;;4.77;84.42;102540.81;4993900;28;20050;-46
2022/02/11 07:14:39;;;;;;;12.57;3.88;;;;;;;4.77;84.60;102536.25;4977044;28;20069;-46
2022/02/11 07:17:07;;;;;;;12.15;3.90;;;;;;;4.78;84.58;102558.69;4994175;28;20046;-45
2022/02/11 07:19:39;;;;;;;12.75;4.05;;;;;;;4.75;84.58;102556.38;4977818;28;20409;-47
2022/02/11 07:22:07;;;;;;;13.75;3.72;;;;;;;4.73;84.77;102561.94;4994236;28;20049;-46
2022/02/11 07:24:35;;;;;;;13.30;4.10;;;;;;;4.73;85.09;102566.50;4961076;28;20049;-46
2022/02/11 07:27:05;;;;;;;14.07;4.18;;;;;;;4.75;85.00;102573.41;4994075;28;20129;-44
2022/02/11 07:29:33;;;;;;;17.50;4.60;;;;;;;4.76;85.36;102585.03;4976950;28;20045;-44
2022/02/11 07:32:02;;;;;;;18.45;4.30;;;;;;;4.74;85.03;102593.34;4976749;28;20101;-46
2022/02/11 07:34:33;;;;;;;15.05;4.20;;;;;;;4.73;85.39;102601.63;4994351;28;20050;-45
2022/02/11 07:37:01;;;;;;;15.88;4.88;;;;;;;4.74;85.52;102605.97;4993611;28;20042;-46
2022/02/11 07:39:50;;;;;;;14.55;4.45;;;;;;;4.71;84.82;102609.88;4974593;28;20050;-46
2022/02/11 07:42:21;;;;;;;16.33;4.68;;;;;;;4.70;85.03;102619.84;4974607;28;20081;-46
2022/02/11 07:44:49;;;;;;;22.50;5.15;;;;;;;4.73;85.24;102642.13;4981733;28;20038;-44
2022/02/11 07:47:19;;;;;;;14.88;4.20;;;;;;;4.74;84.86;102651.88;4993365;28;20050;-43
2022/02/11 07:49:47;;;;;;;19.55;5.05;;;;;;;4.68;84.84;102664.28;4976930;28;20109;-45
2022/02/11 07:52:15;;;;;;;18.58;4.43;;;;;;;4.68;84.48;102681.31;4993523;28;20063;-44
2022/02/11 07:54:44;;;;;;;11.32;3.65;;;;;;;4.63;84.42;102690.97;4993809;28;20047;-44
2022/02/11 07:57:13;;;;;;;10.48;3.65;;;;;;;4.56;83.97;102688.16;4993853;28;20048;-43
2022/02/11 07:59:46;;;;;;;8.27;3.00;;;;;;;4.46;84.50;102676.78;4993933;28;20065;-46
2022/02/11 08:02:14;;;;;;;9.98;3.33;;;;;;;4.42;85.18;102691.66;4993887;28;20046;-45
2022/02/11 08:04:42;;;;;;;10.13;3.08;;;;;;;4.39;85.25;102700.94;4993810;28;20082;-46
2022/02/11 08:07:10;;;;;;;10.77;3.00;;;;;;;4.38;85.23;102685.78;4993763;28;20048;-45
2022/02/11 08:09:38;;;;;;;11.65;3.20;;;;;;;4.36;84.74;102709.41;4993787;28;20132;-44
2022/02/11 08:12:06;;;;;;;12.13;3.08;;;;;;;4.34;83.35;102705.22;4993988;28;20088;-44
2022/02/11 08:14:34;;;;;;;13.70;3.55;;;;;;;4.36;83.89;102708.59;4993715;28;20050;-45
2022/02/11 08:17:01;;;;;;;12.80;4.15;;;;;;;4.38;83.27;102717.34;4993571;28;20052;-48
2022/02/11 08:19:29;;;;;;;15.20;3.80;;;;;;;4.37;83.38;102729.13;4993729;28;20057;-43
2022/02/11 08:21:58;;;;;;;15.90;4.05;;;;;;;4.39;83.49;102725.25;4976610;28;20042;-45
2022/02/11 08:24:25;;;;;;;14.50;3.80;;;;;;;4.44;83.67;102724.69;4976317;28;20074;-43
2022/02/11 08:26:53;;;;;;;12.57;3.78;;;;;;;4.44;84.37;102733.63;4994129;28;20054;-45
2022/02/11 08:29:25;;;;;;;16.23;3.60;;;;;;;4.42;84.61;102742.94;4993613;28;20053;-45
2022/02/11 08:31:55;;;;;;;10.63;3.33;;;;;;;4.45;85.26;102756.09;4993695;28;20042;-45
2022/02/11 08:34:24;;;;;;;12.68;3.40;;;;;;;4.48;85.72;102758.41;4993871;28;20074;-46
2022/02/11 08:36:52;;;;;;;10.73;3.45;;;;;;;4.48;86.26;102758.41;4993641;28;20085;-44
2022/02/11 08:39:20;;;;;;;10.90;3.03;;;;;;;4.52;86.32;102765.13;4993719;28;20046;-45
2022/02/11 08:41:48;;;;;;;9.88;2.92;;;;;;;4.52;86.82;102777.78;4993885;28;20046;-44
2022/02/11 08:44:16;;;;;;;11.75;3.55;;;;;;;4.56;87.36;102785.34;4976454;28;20130;-46
2022/02/11 08:46:44;;;;;;;10.48;3.85;;;;;;;4.61;86.91;102782.94;4993565;28;20161;-45
2022/02/11 08:49:12;;;;;;;10.75;3.22;;;;;;;4.63;87.00;102801.66;4993933;28;20049;-46
2022/02/11 08:51:40;;;;;;;11.55;3.42;;;;;;;4.62;87.04;102794.59;4993222;28;20062;-45
2022/02/11 08:54:08;;;;;;;10.02;3.28;;;;;;;4.64;87.44;102789.84;4993245;28;20073;-46
2022/02/11 08:56:39;;;;;;;12.13;3.78;;;;;;;4.65;87.82;102795.06;4993076;28;20057;-45
2022/02/11 08:59:07;;;;;;;12.57;3.53;;;;;;;4.67;87.53;102790.34;4993721;28;20105;-45
2022/02/11 09:01:35;;;;;;;10.85;3.63;;;;;;;4.60;87.46;102792.06;4960241;28;20046;-44
2022/02/11 09:04:02;;;;;;;13.63;3.83;;;;;;;4.60;87.82;102807.44;4993417;28;20049;-44
2022/02/11 09:06:30;;;;;;;12.93;3.72;;;;;;;4.62;87.86;102811.63;4993338;28;20046;-45
2022/02/11 09:08:58;;;;;;;11.95;3.47;;;;;;;4.66;87.85;102812.09;4993637;28;20058;-47
2022/02/11 09:11:26;;;;;;;14.13;3.88;;;;;;;4.72;88.11;102821.38;4976273;28;20050;-45
2022/02/11 09:13:54;;;;;;;16.98;3.85;;;;;;;4.75;87.15;102826.41;4993299;28;20134;-45
2022/02/11 09:16:22;;;;;;;10.45;3.45;;;;;;;4.76;87.47;102830.78;4996165;28;20097;-45
2022/02/11 09:18:49;;;;;;;13.43;4.25;;;;;;;4.79;87.10;102823.16;4979815;28;20064;-48
2022/02/11 09:21:17;;;;;;;15.02;4.07;;;;;;;4.78;86.62;102832.25;4996879;28;20047;-46
2022/02/11 09:23:45;;;;;;;18.55;4.70;;;;;;;4.77;86.47;102829.75;4996375;28;20049;-46
2022/02/11 09:26:18;;;;;;;15.00;4.07;;;;;;;4.80;86.13;102840.19;4996715;28;20050;-47
2022/02/11 09:28:46;;;;;;;12.98;3.60;;;;;;;4.81;85.59;102844.56;4963713;28;20105;-46
2022/02/11 09:31:14;;;;;;;16.05;4.28;;;;;;;4.84;85.38;102849.63;4996729;28;20125;-46
2022/02/11 09:33:42;;;;;;;16.92;4.65;;;;;;;4.87;85.37;102850.09;4979675;28;20039;-42
2022/02/11 09:36:13;;;;;;;16.10;4.72;;;;;;;4.92;85.30;102849.56;4996747;28;20042;-45
2022/02/11 09:38:41;;;;;;;16.10;4.85;;;;;;;4.95;84.54;102857.28;4979275;28;20043;-46
2022/02/11 09:41:09;;;;;;;17.60;4.95;;;;;;;4.96;84.33;102871.66;4996533;28;20096;-46
2022/02/11 09:43:37;;;;;;;19.38;4.20;;;;;;;4.95;83.36;102860.00;4996328;28;20564;-46
2022/02/11 09:46:07;;;;;;;19.65;5.22;;;;;;;4.99;82.43;102866.72;4979387;28;20052;-44
2022/02/11 09:48:34;;;;;;;16.75;4.93;;;;;;;5.02;81.93;102871.75;4979293;28;20041;-45
2022/02/11 09:51:01;;;;;;;16.60;4.45;;;;;;;5.06;81.46;102875.78;4996394;28;20097;-46
2022/02/11 09:53:29;;;;;;;18.20;4.80;;;;;;;5.10;80.23;102887.94;4995875;28;20046;-45
2022/02/11 09:55:57;;;;;;;21.67;4.60;;;;;;;5.13;79.72;102868.66;4979078;28;20061;-45
2022/02/11 09:58:25;;;;;;;18.27;4.18;;;;;;;5.19;79.54;102879.75;4995877;28;20046;-45
2022/02/11 10:00:53;;;;;;;18.10;4.50;;;;;;;5.20;79.07;102881.44;4962837;28;20054;-44
2022/02/11 10:03:22;;;;;;;19.67;4.25;;;;;;;5.30;80.72;102892.84;4978984;28;20443;-45
2022/02/11 10:05:58;;;;;;;15.55;3.83;;;;;;;5.36;79.68;102889.41;4995869;28;20044;-45
2022/02/11 10:08:29;;;;;;;20.20;5.15;;;;;;;5.37;77.88;102907.31;4978591;28;20054;-44
2022/02/11 10:10:58;;;;;;;24.48;5.90;;;;;;;5.34;76.51;102907.69;4995973;28;20049;-45
2022/02/11 10:13:30;;;;;;;17.67;4.85;;;;;;;5.36;77.05;102916.41;4996053;28;20061;-46
2022/02/11 10:16:01;;;;;;;22.85;5.72;;;;;;;5.39;77.17;102910.69;4996058;28;20046;-43
2022/02/11 10:18:31;;;;;;;24.65;5.43;;;;;;;5.41;75.77;102919.44;4995902;28;20058;-46
2022/02/11 10:21:00;;;;;;;22.52;5.72;;;;;;;5.43;75.74;102928.19;4978517;28;20049;-45
2022/02/11 10:23:33;;;;;;;18.67;4.10;;;;;;;5.44;75.44;102935.31;4978159;28;20050;-46
2022/02/11 10:26:07;;;;;;;24.30;5.78;;;;;;;5.47;74.61;102939.50;4978080;28;20050;-44
2022/02/11 10:28:40;;;;;;;27.23;5.68;;;;;;;5.49;74.00;102951.81;4995275;28;20101;-43
2022/02/11 10:31:17;;;;;;;20.92;5.43;;;;;;;5.52;73.76;102943.31;4978489;28;20050;-48
2022/02/11 10:34:06;;;;;;;20.17;5.47;;;;;;;5.54;71.80;102952.09;4995846;28;20100;-46
2022/02/11 10:36:35;;;;;;;19.15;5.07;;;;;;;5.55;71.95;102961.06;4995594;28;20058;-45
2022/02/11 10:39:20;;;;;;;20.73;5.30;;;;;;;5.59;70.51;102964.25;4995614;28;20046;-45
2022/02/11 10:41:54;;;;;;;21.33;5.22;;;;;;;5.62;70.60;102969.28;4995654;28;20050;-47
2022/02/11 10:44:23;;;;;;;22.27;4.95;;;;;;;5.66;70.74;102954.38;4977925;28;20053;-45
2022/02/11 10:47:20;;;;;;;21.48;4.90;;;;;;;5.73;68.71;102976.97;4995157;28;20042;-45
2022/02/11 10:49:48;;;;;;;17.52;5.18;;;;;;;5.74;67.72;102962.41;4995204;28;20054;-45
2022/02/11 10:52:21;;;;;;;20.58;5.45;;;;;;;5.77;65.45;102972.84;4978329;28;20134;-44
2022/02/11 10:54:51;;;;;;;18.95;5.03;;;;;;;5.86;65.47;102988.00;4995098;28;20053;-44
2022/02/11 10:57:20;;;;;;;18.52;4.60;;;;;;;5.88;65.94;102980.53;4978015;28;20125;-45
2022/02/11 10:59:50;;;;;;;18.20;4.57;;;;;;;5.92;66.56;102983.75;4977863;28;20045;-45
2022/02/11 11:02:23;;;;;;;19.98;5.05;;;;;;;5.96;64.35;102988.63;4995142;28;20129;-45
2022/02/11 11:04:52;;;;;;;15.15;4.57;;;;;;;5.95;62.19;103008.56;4994919;28;20082;-47
2022/02/11 11:07:25;;;;;;;15.25;4.03;;;;;;;5.91;59.23;102991.00;4977726;28;20053;-45
2022/02/11 11:10:14;;;;;;;19.70;5.07;;;;;;;5.90;58.85;102994.72;4994770;28;20129;-45
2022/02/11 11:12:54;;;;;;;18.17;4.93;;;;;;;5.85;57.21;103001.72;4995054;28;20046;-44
2022/02/11 11:15:23;;;;;;;18.17;5.00;;;;;;;5.82;57.68;102997.53;4994864;28;20042;-44
2022/02/11 11:17:54;;;;;;;18.92;4.50;;;;;;;5.83;57.30;103010.00;4977593;28;20042;-45
2022/02/11 11:20:23;;;;;;;16.77;4.47;;;;;;;5.87;57.06;103022.16;4994559;28;20077;-45
2022/02/11 11:23:04;;;;;;;17.52;4.72;;;;;;;5.89;56.89;103025.53;4977676;28;20134;-44
2022/02/11 11:26:03;;;;;;;11.98;4.20;;;;;;;5.87;57.60;103024.88;4961359;28;20052;-43
2022/02/11 11:29:04;;;;;;;20.67;4.90;;;;;;;5.83;58.01;103026.25;4978375;28;20047;-45
2022/02/11 11:31:32;;;;;;;16.40;4.75;;;;;;;5.81;58.38;103019.34;4961393;28;20053;-45
2022/02/11 11:34:18;;;;;;;15.80;4.95;;;;;;;5.84;59.80;103038.72;4994826;28;20129;-44
2022/02/11 11:36:50;;;;;;;16.65;4.93;;;;;;;5.84;58.61;103044.16;4994814;28;20047;-46
2022/02/11 11:39:18;;;;;;;16.60;4.30;;;;;;;5.85;58.81;103040.44;4994176;28;20424;-43
2022/02/11 11:42:08;;;;;;;19.33;4.68;;;;;;;5.85;57.32;103051.25;4994499;28;20057;-45
2022/02/11 11:44:44;;;;;;;21.05;4.55;;;;;;;5.85;56.58;103035.03;4994631;28;20051;-45
2022/02/11 11:47:16;;;;;;;19.13;4.90;;;;;;;5.85;56.50;103047.72;4994194;28;20042;-47
2022/02/11 11:49:50;;;;;;;21.20;5.28;;;;;;;5.89;55.73;103040.91;4994040;28;20056;-45
2022/02/11 11:52:20;;;;;;;15.00;4.05;;;;;;;5.92;55.65;103044.09;4994909;28;20042;-45
2022/02/11 11:55:14;;;;;;;16.38;4.38;;;;;;;5.98;55.18;103046.09;4992292;28;20137;-46
2022/02/11 11:57:42;;;;;;;15.10;4.03;;;;;;;6.01;54.19;103050.28;4292903;28;10000615;-47
2022/02/11 12:00:14;;;;;;;18.90;4.25;;;;;;;6.00;54.72;103064.03;4973903;28;20094;-44
2022/02/11 12:02:50;;;;;;;17.70;5.28;;;;;;;5.93;54.54;103072.81;4990588;28;20042;-44
2022/02/11 12:05:42;;;;;;;19.85;4.63;;;;;;;5.88;54.71;103064.41;4990470;28;20386;-44
2022/02/11 12:08:09;;;;;;;20.63;4.78;;;;;;;5.92;54.83;103057.63;4990564;28;20043;-43
2022/02/11 12:10:37;;;;;;;17.08;4.57;;;;;;;5.93;54.92;103053.88;4990694;28;20087;-46
2022/02/11 12:13:05;;;;;;;20.10;4.65;;;;;;;5.95;56.05;103054.56;4973854;28;20054;-43
2022/02/11 12:15:33;;;;;;;19.58;4.35;;;;;;;6.00;54.48;103050.50;4989876;28;20058;-41
2022/02/11 12:18:00;;;;;;;14.45;4.07;;;;;;;6.02;54.40;103045.75;4973490;28;20145;-44
2022/02/11 12:20:28;;;;;;;13.98;3.88;;;;;;;6.09;55.51;103052.09;4990674;28;20070;-40
2022/02/11 12:28:30;;;;;;;18.80;4.40;;;;;;;6.25;52.11;103054.63;4991005;28;20039;-43
2022/02/11 12:31:04;;;;;;;13.68;4.45;;;;;;;6.31;51.86;103055.78;4990163;28;20129;-42
2022/02/11 12:33:32;;;;;;;14.65;4.40;;;;;;;6.34;51.63;103061.66;4957806;28;20053;-42
2022/02/11 12:36:12;;;;;;;14.07;4.05;;;;;;;6.32;52.33;103069.13;4990593;28;20047;-44
2022/02/11 12:38:40;;;;;;;16.58;3.67;;;;;;;6.39;53.04;103069.22;4990408;28;20421;-42
2022/02/11 12:41:08;;;;;;;12.65;3.90;;;;;;;6.42;52.38;103059.91;4990554;28;20042;-43
2022/02/11 12:43:36;;;;;;;15.43;4.60;;;;;;;6.42;53.08;103068.03;4990388;28;20050;-44
2022/02/11 12:46:08;;;;;;;15.88;4.47;;;;;;;6.39;52.93;103070.06;4973183;28;20509;-45
2022/02/11 12:48:40;;;;;;;17.58;3.80;;;;;;;6.37;52.19;103076.69;4989978;28;20038;-46
2022/02/11 12:51:10;;;;;;;14.73;3.88;;;;;;;6.31;52.80;103072.88;4992971;28;20053;-45
2022/02/11 12:53:38;;;;;;;15.73;4.70;;;;;;;6.30;53.17;103071.19;4976737;28;20058;-47
2022/02/11 12:56:12;;;;;;;16.73;4.18;;;;;;;6.29;53.47;103083.03;4976708;28;20066;-44
2022/02/11 12:58:40;;;;;;;15.00;3.90;;;;;;;6.19;53.54;103075.16;4993351;28;20054;-47
2022/02/11 13:01:08;;;;;;;13.55;4.25;;;;;;;6.20;54.75;103084.13;4961471;28;20058;-50
2022/02/11 13:03:36;;;;;;;13.00;3.78;;;;;;;6.13;53.79;103077.75;4976652;28;20052;-46
2022/02/11 13:06:18;;;;;;;17.88;3.78;;;;;;;6.08;53.42;103085.59;4993885;28;20050;-44
2022/02/11 13:08:46;;;;;;;15.25;3.92;;;;;;;6.07;52.81;103083.91;4994049;28;20047;-46
2022/02/11 13:11:17;;;;;;;12.43;3.72;;;;;;;6.08;52.76;103093.72;4993866;28;20047;-47
2022/02/11 13:13:45;;;;;;;17.70;4.22;;;;;;;6.07;52.47;103103.69;4976534;28;20082;-44
2022/02/11 13:16:13;;;;;;;14.52;4.72;;;;;;;6.05;51.03;103100.34;4976673;28;20053;-46
2022/02/11 13:18:42;;;;;;;16.80;4.18;;;;;;;6.07;52.51;103103.69;4993267;28;20452;-45
2022/02/11 13:21:10;;;;;;;15.75;3.75;;;;;;;6.10;52.52;103105.19;4993335;28;20120;-45
2022/02/11 13:23:41;;;;;;;15.43;4.80;;;;;;;6.10;52.24;103113.31;4976236;28;20046;-46
2022/02/11 13:26:14;;;;;;;16.42;3.85;;;;;;;6.08;52.36;103099.97;4993667;28;20090;-43
2022/02/11 13:28:48;;;;;;;13.25;4.18;;;;;;;6.07;52.74;103105.56;4993800;28;20042;-47
2022/02/11 13:31:18;;;;;;;21.73;4.85;;;;;;;6.06;52.00;103106.56;4993491;28;20077;-44
2022/02/11 13:33:46;;;;;;;14.20;3.60;;;;;;;6.08;52.59;103116.19;4993380;28;20049;-46
2022/02/11 13:36:25;;;;;;;13.15;3.88;;;;;;;6.13;52.47;103116.53;4993461;28;20089;-43
2022/02/11 13:38:53;;;;;;;14.02;3.65;;;;;;;6.15;52.94;103114.44;4993021;28;20050;-45
2022/02/11 13:41:46;;;;;;;16.63;4.03;;;;;;;6.19;53.55;103123.06;4976313;28;20085;-45
2022/02/11 13:44:14;;;;;;;17.98;3.75;;;;;;;6.19;52.80;103123.06;4971327;28;20058;-46
2022/02/11 13:46:55;;;;;;;19.02;4.00;;;;;;;6.22;53.77;103121.84;4975665;28;20460;-42
2022/02/11 13:49:23;;;;;;;22.83;4.05;;;;;;;6.25;54.09;103116.91;4993129;28;20050;-41
2022/02/11 13:55:07;;;;;;;13.80;3.28;;;;;;;6.21;53.25;103126.44;4992347;28;20618;-43
2022/02/11 13:57:35;;;;;;;11.15;3.50;;;;;;;6.19;53.82;103123.91;4975561;28;20069;-41
2022/02/11 14:00:36;;;;;;;17.35;3.78;;;;;;;6.21;53.89;103122.88;4976254;28;20132;-43
2022/02/11 14:03:07;;;;;;;16.48;4.15;;;;;;;6.23;55.49;103128.94;4992373;28;20057;-45
2022/02/11 14:05:45;;;;;;;16.42;4.38;;;;;;;6.21;55.30;103142.69;4956333;28;20053;-44
2022/02/11 14:08:14;;;;;;;16.23;4.68;;;;;;;6.16;55.28;103134.25;4990708;28;20046;-44
2022/02/11 14:10:43;;;;;;;14.65;4.53;;;;;;;6.13;55.84;103151.72;4992151;28;20683;-43
2022/02/11 14:13:11;;;;;;;19.95;4.70;;;;;;;6.04;53.95;103150.06;4975454;28;20069;-46
2022/02/11 14:15:41;;;;;;;15.23;4.28;;;;;;;6.03;54.76;103150.25;4992905;28;20050;-44
2022/02/11 14:18:10;;;;;;;15.55;4.05;;;;;;;6.03;54.74;103145.66;4975584;28;20050;-45
2022/02/11 14:20:39;;;;;;;13.98;4.35;;;;;;;6.04;54.68;103154.63;4992632;28;20050;-41
2022/02/11 14:23:14;;;;;;;16.77;3.55;;;;;;;6.03;54.61;103152.94;4992375;28;20766;-43
2022/02/11 14:25:42;;;;;;;14.90;3.53;;;;;;;6.05;53.00;103156.31;4992383;28;20054;-46
2022/02/11 14:28:11;;;;;;;15.20;3.60;;;;;;;6.07;52.91;103151.59;4974830;28;20046;-43
2022/02/11 14:30:44;;;;;;;14.32;3.95;;;;;;;6.11;52.12;103166.41;4992844;28;20061;-44
2022/02/11 14:33:12;;;;;;;14.50;4.15;;;;;;;6.13;51.89;103162.53;4974683;28;20054;-42
2022/02/11 14:35:40;;;;;;;14.70;3.67;;;;;;;6.15;52.13;103154.22;4992239;28;20042;-41
2022/02/11 14:38:08;;;;;;;13.57;3.58;;;;;;;6.15;52.14;103165.03;4959012;28;20047;-42
2022/02/11 14:40:37;;;;;;;12.82;3.40;;;;;;;6.15;52.42;103160.47;4992287;28;20050;-41
2022/02/11 14:43:05;;;;;;;12.25;3.30;;;;;;;6.15;52.18;103170.44;4959416;28;20133;-41
2022/02/11 14:45:33;;;;;;;16.30;4.00;;;;;;;6.15;51.98;103175.88;4992693;28;20052;-42
2022/02/11 14:48:02;;;;;;;14.50;3.70;;;;;;;6.16;52.57;103169.44;4992040;28;20054;-44
2022/02/11 14:50:30;;;;;;;14.80;3.60;;;;;;;6.16;52.08;103173.00;4975876;28;20069;-42
2022/02/11 14:52:58;;;;;;;19.65;3.38;;;;;;;6.20;51.83;103173.47;4991621;28;20056;-44
2022/02/11 14:55:28;;;;;;;17.40;3.30;;;;;;;6.23;52.81;103167.69;4974583;28;20068;-46
2022/02/11 14:57:58;;;;;;;17.25;3.45;;;;;;;6.21;51.66;103185.16;4991441;28;20593;-45
2022/02/11 15:00:26;;;;;;;11.27;3.40;;;;;;;6.17;52.27;103179.25;4991671;28;20449;-41
2022/02/11 15:02:54;;;;;;;11.38;3.40;;;;;;;6.18;52.69;103180.91;4992154;28;20082;-42
2022/02/11 15:05:22;;;;;;;11.50;3.00;;;;;;;6.21;52.60;103186.00;4974211;28;20069;-45
2022/02/11 15:07:50;;;;;;;15.38;3.92;;;;;;;6.22;52.89;103182.25;4991543;28;20058;-45
2022/02/11 15:10:19;;;;;;;14.15;3.65;;;;;;;6.21;53.00;103186.00;4974435;28;20046;-44
2022/02/11 15:12:47;;;;;;;10.70;3.63;;;;;;;6.19;53.47;103185.31;4991083;28;20054;-46
2022/02/11 15:15:15;;;;;;;12.15;3.67;;;;;;;6.19;53.97;103183.44;4974110;28;20054;-41
2022/02/11 15:17:43;;;;;;;13.50;3.85;;;;;;;6.19;54.05;103190.72;4991399;28;20121;-46
2022/02/11 15:20:11;;;;;;;14.48;4.40;;;;;;;6.19;54.61;103194.28;4974022;28;20050;-44
2022/02/11 15:22:39;;;;;;;17.73;4.38;;;;;;;6.19;54.87;103191.56;4991751;28;20446;-42
2022/02/11 15:25:07;;;;;;;16.95;3.65;;;;;;;6.20;55.35;103197.81;4991456;28;20054;-41
2022/02/11 15:27:34;;;;;;;12.50;4.03;;;;;;;6.20;55.78;103197.81;4991558;28;20141;-42
2022/02/11 15:30:02;;;;;;;16.05;4.20;;;;;;;6.19;55.37;103193.44;4991356;28;20042;-42
2022/02/11 15:32:30;;;;;;;19.38;4.05;;;;;;;6.18;55.90;103202.56;4991745;28;20523;-43
2022/02/11 15:34:57;;;;;;;13.50;3.78;;;;;;;6.17;56.19;103196.31;4990328;28;20046;-43